Terminal Aerodrome Forecast
Issued by NWS

Home | Current Version | Previous Version | Graphics & Text | Print | Product List | Glossary On
Versions: 1 2 3 4 5 6 7 8 9 10 11 12 13 14 15
000
FTUS43 KMPX 191728
TAFRWF
TAF
KRWF 191728Z 1918/2018 15015G22KT P6SM SCT250
     FM200300 15013G20KT P6SM OVC200 WS020/19045KT
     FM200900 16013KT P6SM VCSH OVC012
     FM201300 16012KT 4SM -SHRA BR OVC010=

USA.gov is the U.S. government's official web portal to all federal, state and local government web resources and services.